createdAt,value
2022-12-03T00:00:12.755Z,34.43
2022-12-03T00:02:41.447Z,36.30
2022-12-03T00:05:10.083Z,36.13
2022-12-03T00:07:37.604Z,38.27
2022-12-03T00:10:06.410Z,36.87
2022-12-03T00:12:34.147Z,33.40
2022-12-03T00:15:01.653Z,32.50
2022-12-03T00:17:29.178Z,33.47
2022-12-03T00:19:56.620Z,33.13
2022-12-03T00:22:24.129Z,30.43
2022-12-03T00:24:51.941Z,33.77
2022-12-03T00:27:19.667Z,33.73
2022-12-03T00:29:47.110Z,31.97
2022-12-03T00:32:14.485Z,36.37
2022-12-03T00:34:41.913Z,35.03
2022-12-03T00:37:09.365Z,36.80
2022-12-03T00:39:36.811Z,33.87
2022-12-03T00:42:04.712Z,32.20
2022-12-03T00:44:32.161Z,30.67
2022-12-03T00:46:59.638Z,32.27
2022-12-03T00:49:27.176Z,33.13
2022-12-03T00:51:54.619Z,34.50
2022-12-03T00:54:25.629Z,33.03
2022-12-03T00:56:57.595Z,39.57
2022-12-03T00:59:25.029Z,35.67
2022-12-03T01:01:52.717Z,34.83
2022-12-03T01:04:20.409Z,32.50
2022-12-03T01:06:47.895Z,33.13
2022-12-03T01:09:15.379Z,32.63
2022-12-03T01:11:42.838Z,33.53
2022-12-03T01:14:17.873Z,34.27
2022-12-03T01:16:46.246Z,31.87
2022-12-03T01:19:17.756Z,31.83
2022-12-03T01:22:50.659Z,34.23
2022-12-03T01:25:18.411Z,35.23
2022-12-03T01:27:45.896Z,36.03
2022-12-03T01:30:14.264Z,34.90
2022-12-03T01:32:41.656Z,34.07
2022-12-03T01:35:09.530Z,32.10
2022-12-03T01:37:37.027Z,33.87
2022-12-03T01:40:06.239Z,33.23
2022-12-03T01:42:41.801Z,32.17
2022-12-03T01:45:24.173Z,31.43
2022-12-03T01:47:51.856Z,31.10
2022-12-03T01:50:32.455Z,29.20
2022-12-03T01:53:03.338Z,33.27
2022-12-03T01:55:31.130Z,30.33
2022-12-03T01:58:01.209Z,31.20
2022-12-03T02:00:29.365Z,30.33
2022-12-03T02:03:12.023Z,28.67
2022-12-03T02:05:39.681Z,30.27
2022-12-03T02:08:29.967Z,28.03
2022-12-03T02:11:30.697Z,30.70
2022-12-03T02:14:09.012Z,27.77
2022-12-03T02:16:39.657Z,29.07
2022-12-03T02:19:25.821Z,29.70
2022-12-03T02:22:15.915Z,32.50
2022-12-03T02:25:07.257Z,27.77
2022-12-03T02:27:34.684Z,27.73
2022-12-03T02:30:02.328Z,27.97
2022-12-03T02:32:29.774Z,30.93
2022-12-03T02:34:57.221Z,27.77
2022-12-03T02:37:31.454Z,28.40
2022-12-03T02:40:06.439Z,29.73
2022-12-03T02:42:36.951Z,30.63
2022-12-03T02:45:08.664Z,28.87
2022-12-03T02:47:45.733Z,28.23
2022-12-03T02:50:17.691Z,28.43
2022-12-03T02:52:46.803Z,32.13
2022-12-03T02:55:17.305Z,29.57
2022-12-03T02:57:47.320Z,30.07
2022-12-03T03:00:16.793Z,31.63
2022-12-03T03:02:46.439Z,29.97
2022-12-03T03:05:15.427Z,27.07
2022-12-03T03:07:43.141Z,27.07
2022-12-03T03:10:15.703Z,29.70
2022-12-03T03:12:43.671Z,30.47
2022-12-03T03:15:12.512Z,28.80
2022-12-03T03:17:40.812Z,29.50
2022-12-03T03:20:10.192Z,28.30
2022-12-03T03:22:41.756Z,31.30
2022-12-03T03:25:18.329Z,32.07
2022-12-03T03:27:46.124Z,29.53
2022-12-03T03:30:14.569Z,31.63
2022-12-03T03:32:42.970Z,29.20
2022-12-03T03:35:12.339Z,35.73
2022-12-03T03:37:40.034Z,39.17
2022-12-03T03:40:08.901Z,33.87
2022-12-03T03:42:36.816Z,33.30
2022-12-03T03:45:06.595Z,36.90
2022-12-03T03:47:34.219Z,32.97
2022-12-03T03:50:02.307Z,32.27
2022-12-03T03:52:30.503Z,34.63
2022-12-03T03:54:58.203Z,30.90
2022-12-03T03:57:25.828Z,31.43
2022-12-03T03:59:53.248Z,31.27
2022-12-03T04:02:23.413Z,32.67
2022-12-03T04:04:51.907Z,33.93
2022-12-03T04:07:19.916Z,30.90
2022-12-03T04:09:47.407Z,36.10
2022-12-03T04:12:33.466Z,35.67
2022-12-03T04:15:00.957Z,35.77
2022-12-03T04:17:28.388Z,36.27
2022-12-03T04:19:56.190Z,36.20
2022-12-03T04:22:42.003Z,35.73
2022-12-03T04:25:29.341Z,37.20
2022-12-03T04:28:15.423Z,38.83
2022-12-03T04:30:42.932Z,39.97
2022-12-03T04:33:28.926Z,40.60
2022-12-03T04:35:56.507Z,40.90
2022-12-03T04:38:24.123Z,39.63
2022-12-03T04:41:06.515Z,38.13
2022-12-03T04:43:55.287Z,40.10
2022-12-03T04:46:22.818Z,41.70
2022-12-03T04:48:50.239Z,42.57
2022-12-03T04:51:17.655Z,39.07
2022-12-03T04:53:46.366Z,37.63
2022-12-03T04:56:13.971Z,36.13
2022-12-03T04:58:41.415Z,37.90
2022-12-03T05:01:08.845Z,38.77
2022-12-03T05:03:36.448Z,35.47
2022-12-03T05:06:04.212Z,35.70
2022-12-03T05:08:31.667Z,35.83
2022-12-03T05:10:59.070Z,34.10
2022-12-03T05:13:26.416Z,35.50
2022-12-03T05:15:53.843Z,33.73
2022-12-03T05:18:21.257Z,35.40
2022-12-03T05:20:53.270Z,30.80
2022-12-03T05:23:21.481Z,34.00
2022-12-03T05:25:49.094Z,33.80
2022-12-03T05:28:16.796Z,33.73
2022-12-03T05:30:44.358Z,34.50
2022-12-03T05:33:11.871Z,31.47
2022-12-03T05:35:39.273Z,29.60
2022-12-03T05:38:06.715Z,32.37
2022-12-03T05:40:34.227Z,32.40
2022-12-03T05:43:02.017Z,29.97
2022-12-03T05:45:33.389Z,29.73
2022-12-03T05:48:02.469Z,28.93
2022-12-03T05:50:34.455Z,28.87
2022-12-03T05:53:02.228Z,29.33
2022-12-03T05:55:30.345Z,52.87
2022-12-03T05:57:58.112Z,33.27
2022-12-03T06:00:29.514Z,45.23
2022-12-03T06:02:57.643Z,55.90
2022-12-03T06:05:26.075Z,49.77
2022-12-03T06:07:54.131Z,55.47
2022-12-03T06:10:24.902Z,49.47
2022-12-03T06:12:52.770Z,50.87
2022-12-03T06:15:20.893Z,46.70
2022-12-03T06:17:48.359Z,47.63
2022-12-03T06:20:20.508Z,38.37
2022-12-03T06:22:48.400Z,44.13
2022-12-03T06:25:16.721Z,43.73
2022-12-03T06:27:44.619Z,51.97
2022-12-03T06:30:15.386Z,46.53
2022-12-03T06:32:42.799Z,43.70
2022-12-03T06:35:10.643Z,51.97
2022-12-03T06:37:38.090Z,44.33
2022-12-03T06:40:06.526Z,51.17
2022-12-03T06:42:33.919Z,63.30
2022-12-03T06:45:01.259Z,45.27
2022-12-03T06:47:28.755Z,43.17
2022-12-03T06:49:56.151Z,40.13
2022-12-03T06:52:24.231Z,48.87
2022-12-03T06:54:52.028Z,42.00
2022-12-03T06:57:19.648Z,32.47
2022-12-03T06:59:47.089Z,42.70
2022-12-03T07:02:14.532Z,43.57
2022-12-03T07:04:46.103Z,38.83
2022-12-03T07:07:14.910Z,37.10
2022-12-03T07:09:42.356Z,39.37
2022-12-03T07:12:09.804Z,40.63
2022-12-03T07:14:37.255Z,35.37
2022-12-03T07:17:04.774Z,25.53
2022-12-03T07:19:33.064Z,31.17
2022-12-03T07:22:01.223Z,34.80
2022-12-03T07:24:28.821Z,33.07
2022-12-03T07:26:56.262Z,35.33
2022-12-03T07:29:23.715Z,33.27
2022-12-03T07:31:51.483Z,32.50
2022-12-03T07:34:19.069Z,29.63
2022-12-03T07:36:46.479Z,29.37
2022-12-03T07:39:14.500Z,29.30
2022-12-03T07:41:41.949Z,28.60
2022-12-03T07:44:14.305Z,32.67
2022-12-03T07:46:43.472Z,36.60
2022-12-03T07:49:12.403Z,27.93
2022-12-03T07:51:40.070Z,28.40
2022-12-03T07:54:07.803Z,36.63
2022-12-03T07:56:35.317Z,28.57
2022-12-03T07:59:02.847Z,33.10
2022-12-03T08:01:30.452Z,33.63
2022-12-03T08:03:58.042Z,32.57
2022-12-03T08:06:25.487Z,27.33
2022-12-03T08:08:52.918Z,28.67
2022-12-03T08:11:20.319Z,29.97
2022-12-03T08:13:47.788Z,30.27
2022-12-03T08:16:21.530Z,31.67
2022-12-03T08:18:51.094Z,29.43
2022-12-03T08:21:21.184Z,29.53
2022-12-03T08:23:48.802Z,30.60
2022-12-03T08:26:26.080Z,28.50
2022-12-03T08:28:54.617Z,27.87
2022-12-03T08:31:33.471Z,27.50
2022-12-03T08:34:27.000Z,28.80
2022-12-03T08:37:02.375Z,39.63
2022-12-03T08:39:38.002Z,41.20
2022-12-03T08:42:26.846Z,31.77
2022-12-03T08:44:55.934Z,30.60
2022-12-03T08:47:24.857Z,33.47
2022-12-03T08:50:03.475Z,30.20
2022-12-03T08:52:35.049Z,29.97
2022-12-03T08:55:35.150Z,31.77
2022-12-03T08:58:23.622Z,30.40
2022-12-03T09:01:12.617Z,31.13
2022-12-03T09:03:49.713Z,29.53
2022-12-03T09:06:17.384Z,33.47
2022-12-03T09:08:45.217Z,35.43
2022-12-03T09:11:13.291Z,29.97
2022-12-03T09:13:41.161Z,31.70
2022-12-03T09:16:08.961Z,30.77
2022-12-03T09:18:36.520Z,33.33
2022-12-03T09:21:04.084Z,38.90
2022-12-03T09:23:31.443Z,30.70
2022-12-03T09:25:59.756Z,30.53
2022-12-03T09:28:27.199Z,31.37
2022-12-03T09:30:54.607Z,32.63
2022-12-03T09:33:22.261Z,33.20
2022-12-03T09:35:49.685Z,37.43
2022-12-03T09:38:17.058Z,37.87
2022-12-03T09:40:44.536Z,36.20
2022-12-03T09:43:13.369Z,33.80
2022-12-03T09:45:40.943Z,36.67
2022-12-03T09:48:08.545Z,36.80
2022-12-03T09:50:41.735Z,36.13
2022-12-03T09:53:16.550Z,38.87
2022-12-03T09:55:46.757Z,36.37
2022-12-03T09:58:18.755Z,32.27
2022-12-03T10:01:01.421Z,31.20
2022-12-03T10:03:32.228Z,38.80
2022-12-03T10:05:59.716Z,32.77
2022-12-03T10:08:32.656Z,33.97
2022-12-03T10:11:00.189Z,30.67
2022-12-03T10:13:31.088Z,35.87
2022-12-03T10:16:01.429Z,36.07
2022-12-03T10:18:38.212Z,34.63
2022-12-03T10:21:39.176Z,34.00
2022-12-03T10:24:36.014Z,32.53
2022-12-03T10:27:24.197Z,32.73
2022-12-03T10:30:00.582Z,33.13
2022-12-03T10:32:42.417Z,34.03
2022-12-03T10:35:13.732Z,35.73
2022-12-03T10:38:25.348Z,34.23
2022-12-03T10:40:53.402Z,34.77
2022-12-03T10:43:24.372Z,34.47
2022-12-03T10:46:12.360Z,37.43
2022-12-03T10:48:40.071Z,34.67
2022-12-03T10:51:22.980Z,33.60
2022-12-03T10:53:51.635Z,33.67
2022-12-03T10:56:26.251Z,32.57
2022-12-03T10:58:54.819Z,38.93
2022-12-03T11:01:25.635Z,36.50
2022-12-03T11:03:56.969Z,36.63
2022-12-03T11:06:24.505Z,38.37
2022-12-03T11:08:57.803Z,34.10
2022-12-03T11:11:31.481Z,39.03
2022-12-03T11:14:04.486Z,42.83
2022-12-03T11:16:41.174Z,40.30
2022-12-03T11:19:37.569Z,38.73
2022-12-03T11:22:05.159Z,40.43
2022-12-03T11:24:36.981Z,36.47
2022-12-03T11:27:04.273Z,40.27
2022-12-03T11:30:00.128Z,39.13
2022-12-03T11:32:42.292Z,39.53
2022-12-03T11:35:13.958Z,40.40
2022-12-03T11:37:41.529Z,40.00
2022-12-03T11:40:17.956Z,37.70
2022-12-03T11:42:47.774Z,44.27
2022-12-03T11:45:35.764Z,40.97
2022-12-03T11:48:12.876Z,44.33
2022-12-03T11:50:53.401Z,39.07
2022-12-03T11:53:25.517Z,38.53
2022-12-03T11:56:09.286Z,38.47
2022-12-03T11:58:40.160Z,39.27
2022-12-03T12:01:08.804Z,37.20
2022-12-03T12:03:44.707Z,40.00
2022-12-03T12:06:16.588Z,39.40
2022-12-03T12:08:53.034Z,41.07
2022-12-03T12:11:33.685Z,38.13
2022-12-03T12:14:09.355Z,42.23
2022-12-03T12:16:53.263Z,46.27
2022-12-03T12:19:43.251Z,42.27
2022-12-03T12:22:18.216Z,40.20
2022-12-03T12:24:51.860Z,42.93
2022-12-03T12:27:45.196Z,45.40
2022-12-03T12:30:19.524Z,44.80
2022-12-03T12:33:08.996Z,44.50
2022-12-03T12:35:37.118Z,40.10
2022-12-03T12:38:07.620Z,41.47
2022-12-03T12:40:39.504Z,39.70
2022-12-03T12:43:25.687Z,43.07
2022-12-03T12:46:18.760Z,41.93
2022-12-03T12:48:49.227Z,45.00
2022-12-03T12:51:21.676Z,43.93
2022-12-03T12:53:50.437Z,46.63
2022-12-03T12:56:24.855Z,42.97
2022-12-03T12:58:53.952Z,42.00
2022-12-03T13:01:32.440Z,44.67
2022-12-03T13:03:59.940Z,42.73
2022-12-03T13:06:31.110Z,43.00
2022-12-03T13:09:01.387Z,46.63
2022-12-03T13:11:45.841Z,46.80
2022-12-03T13:14:33.640Z,43.07
2022-12-03T13:17:17.361Z,40.70
2022-12-03T13:20:01.986Z,43.03
2022-12-03T13:22:32.717Z,45.47
2022-12-03T13:25:57.779Z,42.73
2022-12-03T13:28:22.532Z,52.60
2022-12-03T13:30:50.626Z,49.77
2022-12-03T13:33:27.850Z,50.87
2022-12-03T13:35:56.618Z,53.40
2022-12-03T13:38:26.039Z,60.17
2022-12-03T13:41:00.672Z,61.37
2022-12-03T13:43:33.471Z,64.53
2022-12-03T13:46:01.429Z,77.17
2022-12-03T13:48:35.776Z,64.87
2022-12-03T13:51:24.092Z,54.17
2022-12-03T13:53:51.760Z,58.40
2022-12-03T13:56:30.608Z,61.13
2022-12-03T13:59:00.705Z,62.57
2022-12-03T14:01:29.237Z,58.10
2022-12-03T14:03:57.259Z,59.00
2022-12-03T14:06:24.664Z,53.90
2022-12-03T14:08:52.094Z,52.43
2022-12-03T14:11:38.065Z,54.17
2022-12-03T14:14:05.598Z,47.10
2022-12-03T14:16:33.135Z,50.53
2022-12-03T14:19:00.784Z,53.27
2022-12-03T14:21:28.277Z,52.70
2022-12-03T14:23:55.732Z,55.50
2022-12-03T14:26:23.158Z,50.63
2022-12-03T14:28:50.643Z,56.37
2022-12-03T14:31:18.089Z,51.40
2022-12-03T14:33:45.633Z,57.47
2022-12-03T14:36:13.057Z,55.57
2022-12-03T14:38:40.475Z,53.47
2022-12-03T14:41:27.839Z,53.53
2022-12-03T14:43:55.327Z,55.97
2022-12-03T14:46:22.836Z,58.83
2022-12-03T14:48:50.366Z,63.67
2022-12-03T14:51:17.850Z,60.50
2022-12-03T14:53:45.281Z,83.30
2022-12-03T14:56:12.741Z,66.57
2022-12-03T14:58:40.361Z,61.40
2022-12-03T15:01:08.017Z,66.80
2022-12-03T15:03:35.470Z,65.50
2022-12-03T15:06:02.930Z,62.30
2022-12-03T15:08:30.351Z,71.20
2022-12-03T15:10:57.831Z,67.63
2022-12-03T15:13:25.249Z,62.33
2022-12-03T15:15:52.672Z,66.97
2022-12-03T15:18:20.089Z,66.37
2022-12-03T15:20:47.585Z,62.57
2022-12-03T15:23:14.986Z,65.17
2022-12-03T15:25:42.582Z,68.23
2022-12-03T15:28:10.721Z,63.57
2022-12-03T15:30:38.348Z,64.13
2022-12-03T15:33:05.892Z,63.83
2022-12-03T15:35:33.749Z,61.90
2022-12-03T15:38:01.327Z,60.90
2022-12-03T15:40:29.057Z,65.63
2022-12-03T15:42:56.533Z,62.30
2022-12-03T15:45:24.061Z,62.37
2022-12-03T15:47:51.524Z,64.03
2022-12-03T15:50:18.937Z,68.00
2022-12-03T15:52:46.330Z,71.27
2022-12-03T15:55:13.984Z,70.53
2022-12-03T15:57:41.492Z,82.77
2022-12-03T16:00:11.082Z,69.77
2022-12-03T16:02:38.576Z,67.80
2022-12-03T16:05:10.611Z,63.83
2022-12-03T16:07:38.675Z,65.20
2022-12-03T16:10:08.900Z,66.37
2022-12-03T16:12:36.367Z,72.30
2022-12-03T16:15:04.514Z,65.93
2022-12-03T16:17:31.929Z,72.23
2022-12-03T16:19:59.422Z,113.77
2022-12-03T16:22:26.818Z,97.63
2022-12-03T16:24:54.214Z,68.83
2022-12-03T16:27:25.430Z,75.27
2022-12-03T16:29:53.561Z,69.63
2022-12-03T16:32:21.249Z,71.77
2022-12-03T16:34:49.294Z,78.67
2022-12-03T16:37:16.760Z,76.40
2022-12-03T16:39:44.330Z,72.03
2022-12-03T16:42:16.932Z,73.73
2022-12-03T16:45:14.516Z,74.87
2022-12-03T16:47:41.965Z,75.43
2022-12-03T16:50:14.607Z,71.00
2022-12-03T16:52:47.463Z,79.87
2022-12-03T16:55:14.934Z,78.40
2022-12-03T16:57:42.380Z,82.23
2022-12-03T17:00:10.660Z,82.73
2022-12-03T17:02:38.140Z,79.77
2022-12-03T17:05:06.227Z,81.93
2022-12-03T17:07:33.721Z,78.03
2022-12-03T17:10:01.311Z,82.57
2022-12-03T17:12:37.611Z,91.33
2022-12-03T17:15:15.707Z,84.50
2022-12-03T17:17:43.118Z,80.03
2022-12-03T17:20:12.685Z,85.50
2022-12-03T17:22:40.598Z,84.97
2022-12-03T17:25:08.943Z,84.03
2022-12-03T17:27:40.820Z,99.77
2022-12-03T17:30:13.027Z,97.13
2022-12-03T17:32:40.758Z,103.77
2022-12-03T17:35:09.470Z,111.43
2022-12-03T17:37:37.544Z,128.60
2022-12-03T17:40:06.994Z,123.20
2022-12-03T17:42:34.710Z,100.57
2022-12-03T17:45:02.377Z,90.17
2022-12-03T17:47:29.913Z,87.43
2022-12-03T17:49:57.816Z,92.23
2022-12-03T17:52:25.282Z,93.30
2022-12-03T17:55:10.862Z,91.63
2022-12-03T17:57:39.575Z,80.53
2022-12-03T18:00:08.055Z,82.90
2022-12-03T18:02:35.435Z,89.37
2022-12-03T18:05:02.868Z,98.53
2022-12-03T18:07:30.336Z,83.07
2022-12-03T18:09:58.679Z,84.87
2022-12-03T18:12:26.266Z,90.30
2022-12-03T18:14:53.697Z,90.07
2022-12-03T18:17:21.097Z,87.07
2022-12-03T18:19:48.714Z,93.83
2022-12-03T18:22:16.811Z,85.00
2022-12-03T18:24:46.285Z,86.90
2022-12-03T18:27:15.111Z,88.43
2022-12-03T18:29:42.522Z,89.60
2022-12-03T18:32:27.154Z,95.90
2022-12-03T18:34:56.816Z,89.67
2022-12-03T18:37:28.368Z,89.40
2022-12-03T18:39:57.135Z,87.10
2022-12-03T18:42:25.685Z,90.97
2022-12-03T18:44:55.987Z,94.43
2022-12-03T18:47:28.235Z,83.63
2022-12-03T18:49:56.720Z,78.93
2022-12-03T18:52:25.313Z,81.07
2022-12-03T18:54:53.277Z,81.90
2022-12-03T18:57:20.788Z,77.90
2022-12-03T18:59:48.247Z,76.00
2022-12-03T19:05:09.872Z,83.07
2022-12-03T19:07:37.826Z,80.67
2022-12-03T19:10:06.786Z,92.57
2022-12-03T19:12:34.518Z,82.53
2022-12-03T19:15:03.010Z,104.47
2022-12-03T19:17:30.471Z,89.60
2022-12-03T19:19:58.277Z,80.57
2022-12-03T19:22:25.833Z,81.00
2022-12-03T19:24:53.296Z,79.37
2022-12-03T19:27:20.721Z,78.73
2022-12-03T19:29:51.325Z,74.57
2022-12-03T19:32:18.824Z,75.40
2022-12-03T19:34:46.299Z,74.03
2022-12-03T19:37:13.769Z,70.13
2022-12-03T19:39:41.499Z,80.90
2022-12-03T19:42:09.492Z,72.93
2022-12-03T19:44:37.027Z,72.70
2022-12-03T19:47:04.455Z,75.83
2022-12-03T19:49:32.021Z,75.90
2022-12-03T19:51:59.454Z,79.57
2022-12-03T19:54:27.051Z,78.80
2022-12-03T19:56:54.491Z,72.63
2022-12-03T19:59:22.002Z,71.83
2022-12-03T20:01:49.556Z,74.30
2022-12-03T20:04:17.139Z,68.40
2022-12-03T20:06:45.584Z,67.00
2022-12-03T20:09:18.039Z,62.83
2022-12-03T20:11:46.126Z,67.77
2022-12-03T20:14:18.032Z,65.93
2022-12-03T20:16:46.164Z,65.13
2022-12-03T20:19:16.505Z,70.43
2022-12-03T20:21:45.042Z,61.43
2022-12-03T20:24:17.486Z,64.13
2022-12-03T20:26:45.124Z,71.17
2022-12-03T20:29:12.938Z,62.00
2022-12-03T20:31:40.548Z,67.20
2022-12-03T20:34:08.303Z,58.93
2022-12-03T20:36:35.874Z,64.43
2022-12-03T20:39:06.285Z,65.43
2022-12-03T20:41:36.526Z,59.43
2022-12-03T20:44:06.456Z,60.70
2022-12-03T20:46:34.195Z,66.80
2022-12-03T20:49:01.860Z,65.27
2022-12-03T20:52:06.331Z,62.97
2022-12-03T20:54:33.784Z,76.23
2022-12-03T20:57:01.260Z,76.13
2022-12-03T20:59:28.941Z,67.47
2022-12-03T21:01:57.180Z,72.60
2022-12-03T21:04:24.820Z,64.60
2022-12-03T21:06:52.312Z,66.13
2022-12-03T21:09:19.906Z,75.57
2022-12-03T21:11:47.348Z,85.70
2022-12-03T21:14:14.755Z,89.17
2022-12-03T21:17:07.208Z,84.40
2022-12-03T21:19:33.852Z,79.67
2022-12-03T21:22:01.291Z,62.90
2022-12-03T21:24:28.832Z,78.23
2022-12-03T21:26:56.509Z,67.87
2022-12-03T21:29:24.799Z,77.43
2022-12-03T21:31:52.423Z,68.17
2022-12-03T21:34:19.828Z,64.13
2022-12-03T21:36:47.267Z,69.20
2022-12-03T21:39:14.731Z,74.83
2022-12-03T21:42:34.658Z,74.77
2022-12-03T21:44:29.548Z,63.00
2022-12-03T21:47:12.463Z,61.10
2022-12-03T21:49:41.798Z,69.93
2022-12-03T21:52:09.768Z,60.83
2022-12-03T21:54:37.227Z,61.63
2022-12-03T21:57:04.663Z,57.40
2022-12-03T21:59:32.216Z,64.97
2022-12-03T22:01:59.671Z,68.33
2022-12-03T22:04:27.174Z,71.63
2022-12-03T22:06:55.332Z,77.63
2022-12-03T22:09:26.475Z,71.50
2022-12-03T22:11:57.059Z,57.13
2022-12-03T22:14:24.550Z,61.53
2022-12-03T22:16:52.007Z,60.57
2022-12-03T22:19:22.672Z,62.53
2022-12-03T22:21:50.388Z,59.30
2022-12-03T22:24:19.389Z,59.10
2022-12-03T22:26:47.742Z,63.57
2022-12-03T22:29:15.757Z,62.90
2022-12-03T22:31:43.347Z,65.33
2022-12-03T22:34:10.779Z,81.07
2022-12-03T22:36:38.330Z,61.40
2022-12-03T22:39:05.929Z,54.70
2022-12-03T22:41:33.362Z,60.13
2022-12-03T22:44:00.770Z,59.17
2022-12-03T22:46:28.234Z,57.40
2022-12-03T22:48:55.719Z,54.07
2022-12-03T22:51:25.388Z,54.50
2022-12-03T22:53:59.060Z,55.40
2022-12-03T22:56:29.768Z,59.37
2022-12-03T22:58:57.752Z,55.43
2022-12-03T23:01:34.387Z,57.53
2022-12-03T23:04:03.009Z,57.70
2022-12-03T23:06:31.911Z,58.57
2022-12-03T23:08:59.874Z,56.20
2022-12-03T23:11:28.348Z,53.33
2022-12-03T23:13:56.877Z,51.87
2022-12-03T23:16:29.129Z,54.00
2022-12-03T23:19:02.567Z,54.10
2022-12-03T23:21:33.464Z,55.53
2022-12-03T23:24:03.860Z,52.00
2022-12-03T23:26:36.148Z,53.30
2022-12-03T23:29:04.876Z,55.07
2022-12-03T23:31:34.099Z,52.93
2022-12-03T23:34:02.118Z,53.67
2022-12-03T23:36:32.434Z,55.60
2022-12-03T23:38:59.997Z,50.97
2022-12-03T23:41:27.778Z,52.93
2022-12-03T23:43:56.847Z,56.13
2022-12-03T23:46:27.530Z,54.00
2022-12-03T23:48:55.693Z,52.90
2022-12-03T23:51:25.342Z,51.27
2022-12-03T23:53:54.748Z,52.93
2022-12-03T23:56:29.486Z,50.80
2022-12-03T23:58:58.258Z,53.70
